Time;durP1;ratioP1;P1;durP2;ratioP2;P2;SDS_P1;SDS_P2;PMS_P1;PMS_P2;Temp;Humidity;BMP_temperature;BMP_pressure;BME280_temperature;BME280_humidity;BME280_pressure;Samples;Min_cycle;Max_cycle;Signal;HPM_P1;HPM_P2
2021/03/17 00:01:42;;;;;;;3.67;1.92;;;7.40;93.70;;;;;;5065382;28;20483;-88
2021/03/17 00:04:08;;;;;;;3.75;2.33;;;7.30;93.70;;;;;;5076633;28;20030;-88
2021/03/17 00:06:33;;;;;;;3.97;1.83;;;7.30;93.70;;;;;;5044013;28;20032;-88
2021/03/17 00:08:59;;;;;;;3.38;2.00;;;7.30;93.70;;;;;;5063371;28;20089;-88
2021/03/17 00:11:25;;;;;;;3.95;2.10;;;7.30;93.80;;;;;;5057203;28;20377;-88
2021/03/17 00:13:50;;;;;;;3.58;2.08;;;7.30;93.80;;;;;;5050602;28;20518;-88
2021/03/17 00:16:16;;;;;;;4.63;2.10;;;7.20;93.70;;;;;;5078396;28;20035;-88
2021/03/17 00:18:42;;;;;;;3.13;2.10;;;7.30;93.80;;;;;;5044471;28;20656;-86
2021/03/17 00:21:07;;;;;;;2.47;1.75;;;7.20;93.80;;;;;;5064861;28;20089;-86
2021/03/17 00:23:33;;;;;;;2.65;1.90;;;7.20;93.70;;;;;;5091109;28;20779;-88
2021/03/17 00:25:59;;;;;;;3.30;2.05;;;7.20;93.70;;;;;;5084585;28;20046;-87
2021/03/17 00:28:24;;;;;;;2.80;1.80;;;7.10;93.70;;;;;;5059253;28;20028;-86
2021/03/17 00:30:50;;;;;;;2.08;1.70;;;7.10;93.70;;;;;;5059593;28;20028;-88
2021/03/17 00:33:16;;;;;;;3.70;2.15;;;7.10;93.70;;;;;;5075907;28;20056;-87
2021/03/17 00:35:42;;;;;;;2.30;1.88;;;7.10;93.70;;;;;;5073990;28;20025;-88
2021/03/17 00:38:08;;;;;;;4.18;2.10;;;7.10;93.80;;;;;;5055846;28;20013;-86
2021/03/17 00:40:35;;;;;;;3.28;2.20;;;7.00;93.80;;;;;;5073693;28;20017;-87
2021/03/17 00:43:01;;;;;;;3.40;2.00;;;7.00;93.80;;;;;;5047726;28;20028;-88
2021/03/17 00:45:27;;;;;;;3.20;1.90;;;7.00;93.80;;;;;;5059485;28;20077;-88
2021/03/17 00:47:52;;;;;;;2.70;1.90;;;7.00;93.90;;;;;;5074927;28;20103;-88
2021/03/17 00:50:19;;;;;;;3.10;2.10;;;7.00;93.90;;;;;;5052074;28;20379;-88
2021/03/17 00:52:45;;;;;;;3.15;1.98;;;7.00;94.00;;;;;;5076758;28;20024;-89
2021/03/17 00:55:12;;;;;;;5.10;2.67;;;7.00;94.00;;;;;;5076771;28;20016;-88
2021/03/17 00:57:39;;;;;;;3.45;2.45;;;7.00;94.00;;;;;;5056458;28;20066;-88
2021/03/17 01:00:11;;;;;;;3.40;2.42;;;6.90;94.00;;;;;;5065357;28;20044;-89
2021/03/17 01:02:38;;;;;;;3.53;2.35;;;7.00;94.00;;;;;;5078702;28;20027;-89
2021/03/17 01:05:04;;;;;;;3.75;2.40;;;7.00;94.00;;;;;;5056037;28;20460;-88
2021/03/17 01:07:30;;;;;;;3.17;1.98;;;6.90;94.00;;;;;;5056284;28;20035;-87
2021/03/17 01:09:55;;;;;;;3.95;2.40;;;6.90;94.00;;;;;;5058950;28;20024;-88
2021/03/17 01:12:21;;;;;;;3.55;2.20;;;6.90;94.10;;;;;;5064284;28;20433;-88
2021/03/17 01:14:47;;;;;;;5.10;2.63;;;6.90;94.10;;;;;;5038971;28;20057;-88
2021/03/17 01:17:13;;;;;;;3.95;2.33;;;6.90;94.10;;;;;;5065057;28;20024;-88
2021/03/17 01:19:38;;;;;;;3.42;2.38;;;6.90;94.10;;;;;;5076967;28;20031;-87
2021/03/17 01:22:04;;;;;;;3.22;2.25;;;6.90;94.10;;;;;;5063488;28;20028;-87
2021/03/17 01:24:31;;;;;;;3.42;2.33;;;6.90;94.20;;;;;;5062427;28;20033;-88
2021/03/17 01:26:57;;;;;;;3.90;2.58;;;6.90;94.20;;;;;;5073700;28;20029;-88
2021/03/17 01:29:24;;;;;;;3.63;2.58;;;6.90;94.20;;;;;;5068045;28;20086;-88
2021/03/17 01:31:49;;;;;;;2.97;2.20;;;6.90;94.20;;;;;;5055315;28;20073;-88
2021/03/17 01:34:15;;;;;;;3.70;2.60;;;6.90;94.20;;;;;;5048713;28;20520;-88
2021/03/17 01:36:41;;;;;;;3.22;2.30;;;6.90;94.20;;;;;;5072988;28;20020;-88
2021/03/17 01:39:07;;;;;;;3.95;2.60;;;6.90;94.20;;;;;;5062806;28;20052;-88
2021/03/17 01:41:34;;;;;;;3.08;2.13;;;6.90;94.20;;;;;;5074834;28;20028;-86
2021/03/17 01:44:00;;;;;;;3.72;2.38;;;6.90;94.30;;;;;;5062201;28;20020;-88
2021/03/17 01:46:25;;;;;;;5.10;3.05;;;6.90;94.30;;;;;;5055229;28;20136;-88
2021/03/17 01:48:51;;;;;;;3.88;2.10;;;6.80;94.20;;;;;;5038813;28;20036;-88
2021/03/17 01:51:17;;;;;;;4.05;2.72;;;6.90;94.30;;;;;;5061465;28;20023;-88
2021/03/17 01:53:43;;;;;;;3.78;2.40;;;6.80;94.30;;;;;;5055418;28;20029;-88
2021/03/17 01:56:09;;;;;;;2.83;2.08;;;6.80;94.30;;;;;;5072329;28;20016;-87
2021/03/17 01:58:36;;;;;;;4.13;2.30;;;6.80;94.30;;;;;;5076511;28;20028;-87
2021/03/17 02:01:03;;;;;;;3.10;1.90;;;6.80;94.30;;;;;;5089575;28;20044;-88
2021/03/17 02:03:29;;;;;;;3.30;2.20;;;6.80;94.30;;;;;;5064054;28;20040;-88
2021/03/17 02:05:55;;;;;;;3.28;2.22;;;6.80;94.40;;;;;;5087246;28;20028;-87
2021/03/17 02:08:26;;;;;;;3.42;2.20;;;6.80;94.60;;;;;;5075198;28;20122;-88
2021/03/17 02:10:52;;;;;;;2.78;2.10;;;6.80;94.40;;;;;;5080339;28;20031;-90
2021/03/17 02:13:45;;;;;;;2.35;1.80;;;6.80;94.40;;;;;;5093148;28;20028;-88
2021/03/17 02:16:36;;;;;;;3.28;2.17;;;6.70;94.40;;;;;;5088821;28;20046;-88
2021/03/17 02:19:01;;;;;;;2.95;2.10;;;6.80;94.40;;;;;;5092517;28;20032;-88
2021/03/17 02:21:45;;;;;;;3.67;2.47;;;6.80;94.50;;;;;;5075144;28;20031;-89
2021/03/17 02:24:52;;;;;;;3.45;2.10;;;6.70;94.50;;;;;;5090862;28;20035;-88
2021/03/17 02:27:55;;;;;;;3.78;2.53;;;6.70;94.50;;;;;;5074744;28;20043;-87
2021/03/17 02:30:55;;;;;;;4.53;2.78;;;6.70;94.50;;;;;;5095892;28;20031;-89
2021/03/17 02:33:26;;;;;;;3.95;2.83;;;6.70;94.50;;;;;;5078652;28;20020;-89
2021/03/17 02:35:59;;;;;;;4.20;2.92;;;6.70;94.50;;;;;;5078755;28;20097;-89
2021/03/17 02:38:26;;;;;;;4.50;3.00;;;6.70;94.60;;;;;;5092382;28;20077;-88
2021/03/17 02:40:56;;;;;;;3.95;2.85;;;6.70;94.60;;;;;;5085456;28;20028;-89
2021/03/17 02:43:28;;;;;;;3.88;2.80;;;6.70;94.70;;;;;;5076643;28;20016;-90
2021/03/17 02:45:56;;;;;;;4.03;2.53;;;6.70;94.70;;;;;;5079068;28;20016;-89
2021/03/17 02:48:31;;;;;;;4.18;3.00;;;6.60;94.70;;;;;;5079116;28;20066;-89
2021/03/17 02:51:03;;;;;;;4.70;3.10;;;6.70;94.80;;;;;;5069296;28;20024;-89
2021/03/17 02:53:32;;;;;;;5.13;3.50;;;6.70;94.80;;;;;;5075420;28;20464;-88
2021/03/17 02:56:04;;;;;;;4.78;3.00;;;6.70;94.80;;;;;;5077004;28;20020;-89
2021/03/17 02:58:32;;;;;;;3.92;2.97;;;6.70;94.80;;;;;;5071385;28;20045;-88
2021/03/17 03:00:58;;;;;;;6.32;3.10;;;6.80;94.80;;;;;;5063465;28;20064;-89
2021/03/17 03:03:28;;;;;;;3.45;2.58;;;6.70;94.80;;;;;;5058396;28;20039;-88
2021/03/17 03:05:56;;;;;;;4.40;2.72;;;6.70;94.80;;;;;;5074430;28;20474;-88
2021/03/17 03:08:25;;;;;;;4.38;3.08;;;6.70;94.80;;;;;;5073615;28;20013;-88
2021/03/17 03:10:55;;;;;;;3.33;2.60;;;6.80;94.90;;;;;;5088361;28;20099;-89
2021/03/17 03:13:24;;;;;;;4.05;2.90;;;6.70;94.90;;;;;;5051833;28;20518;-89
2021/03/17 03:15:52;;;;;;;4.43;3.13;;;6.70;94.90;;;;;;5074681;28;20457;-87
2021/03/17 03:18:18;;;;;;;4.22;2.97;;;6.80;94.90;;;;;;5047668;28;20055;-86
2021/03/17 03:20:44;;;;;;;4.13;2.88;;;6.70;95.00;;;;;;5054013;28;20465;-88
2021/03/17 03:23:10;;;;;;;5.10;2.95;;;6.70;95.00;;;;;;5057957;28;20025;-88
2021/03/17 03:25:36;;;;;;;4.13;2.85;;;6.70;95.00;;;;;;5038473;28;20028;-89
2021/03/17 03:28:11;;;;;;;3.97;2.85;;;6.70;95.00;;;;;;5058668;28;20063;-88
2021/03/17 03:30:41;;;;;;;3.60;2.60;;;6.70;95.00;;;;;;5052522;28;20048;-87
2021/03/17 03:33:07;;;;;;;4.20;2.88;;;6.70;95.00;;;;;;5064689;28;20073;-89
2021/03/17 03:35:33;;;;;;;4.75;3.13;;;6.70;95.00;;;;;;5058298;28;20059;-89
2021/03/17 03:37:59;;;;;;;3.95;2.75;;;6.70;95.00;;;;;;5060901;28;20016;-89
2021/03/17 03:40:25;;;;;;;3.67;2.65;;;6.70;95.10;;;;;;5078289;28;20028;-89
2021/03/17 03:42:50;;;;;;;4.80;3.22;;;6.70;95.10;;;;;;5060206;28;20044;-90
2021/03/17 03:45:19;;;;;;;3.85;2.80;;;6.70;95.10;;;;;;5070349;28;20044;-89
2021/03/17 03:47:46;;;;;;;4.00;2.80;;;6.70;95.10;;;;;;5075631;28;20049;-88
2021/03/17 03:50:14;;;;;;;4.80;2.70;;;6.70;95.20;;;;;;5056726;28;20033;-88
2021/03/17 03:53:07;;;;;;;4.80;2.83;;;6.70;95.20;;;;;;5069023;28;20563;-88
2021/03/17 03:56:11;;;;;;;4.25;2.80;;;6.70;95.20;;;;;;5072745;28;20429;-87
2021/03/17 03:58:57;;;;;;;3.75;2.65;;;6.70;95.20;;;;;;5073459;28;20033;-88
2021/03/17 04:01:31;;;;;;;3.00;2.25;;;6.80;95.20;;;;;;5085723;28;20040;-88
2021/03/17 04:04:03;;;;;;;3.40;2.22;;;6.70;95.20;;;;;;5064425;28;20031;-89
2021/03/17 04:06:30;;;;;;;3.05;2.30;;;6.70;95.30;;;;;;5080245;28;20024;-89
2021/03/17 04:08:59;;;;;;;3.70;2.60;;;6.70;95.30;;;;;;5044082;28;20123;-89
2021/03/17 04:11:25;;;;;;;2.90;2.25;;;6.80;95.30;;;;;;5074374;28;20116;-89
2021/03/17 04:13:51;;;;;;;4.22;2.72;;;6.80;95.30;;;;;;5039365;28;20012;-89
2021/03/17 04:16:21;;;;;;;6.57;2.80;;;6.80;95.30;;;;;;5051279;28;20644;-89
2021/03/17 04:18:48;;;;;;;3.67;2.70;;;6.80;95.30;;;;;;5089804;28;20027;-89
2021/03/17 04:21:21;;;;;;;3.35;2.22;;;6.80;95.30;;;;;;5066811;28;20054;-89
2021/03/17 04:23:50;;;;;;;5.20;2.80;;;6.80;95.30;;;;;;5077725;28;20074;-89
2021/03/17 04:26:17;;;;;;;3.38;2.25;;;6.80;95.30;;;;;;5066686;28;20020;-89
2021/03/17 04:28:46;;;;;;;4.50;2.70;;;6.80;95.30;;;;;;5060614;28;20036;-88
2021/03/17 04:31:14;;;;;;;3.42;2.35;;;6.80;95.40;;;;;;5044340;28;20029;-88
2021/03/17 04:33:40;;;;;;;3.55;2.50;;;6.80;95.30;;;;;;5075151;28;20017;-88
2021/03/17 04:36:07;;;;;;;3.22;2.50;;;6.80;95.40;;;;;;5045863;28;20478;-88
2021/03/17 04:38:34;;;;;;;5.03;2.97;;;6.80;95.40;;;;;;5076561;28;20162;-89
2021/03/17 04:41:00;;;;;;;5.18;3.03;;;6.80;95.40;;;;;;5062686;28;20083;-87
2021/03/17 04:43:26;;;;;;;4.18;2.80;;;6.80;95.40;;;;;;5057222;28;20045;-89
2021/03/17 04:45:53;;;;;;;4.15;2.67;;;6.80;95.40;;;;;;5069980;28;20031;-89
2021/03/17 04:48:20;;;;;;;3.30;2.45;;;6.80;95.40;;;;;;5075743;28;20470;-88
2021/03/17 04:50:49;;;;;;;3.55;2.65;;;6.80;95.40;;;;;;5067559;28;20036;-88
2021/03/17 04:53:16;;;;;;;4.00;2.97;;;6.80;95.40;;;;;;5079051;28;20410;-89
2021/03/17 04:55:41;;;;;;;5.13;2.67;;;6.80;95.50;;;;;;5066222;28;20024;-88
2021/03/17 04:58:13;;;;;;;3.80;2.85;;;6.80;95.50;;;;;;5051089;28;20032;-89
2021/03/17 05:00:40;;;;;;;4.38;2.70;;;6.80;95.50;;;;;;5073037;28;20044;-88
2021/03/17 05:03:11;;;;;;;4.32;2.72;;;6.90;95.50;;;;;;5070417;28;20024;-88
2021/03/17 05:05:39;;;;;;;4.78;2.88;;;6.90;95.50;;;;;;5064010;28;20044;-89
2021/03/17 05:08:07;;;;;;;3.90;2.45;;;6.80;95.50;;;;;;5092301;28;20016;-88
2021/03/17 05:10:34;;;;;;;4.15;2.50;;;6.80;95.50;;;;;;5072541;28;20024;-88
2021/03/17 05:13:00;;;;;;;3.88;2.60;;;6.80;95.50;;;;;;5048628;28;20051;-88
2021/03/17 05:15:26;;;;;;;3.85;2.70;;;6.80;95.50;;;;;;5075247;28;20020;-89
2021/03/17 05:17:52;;;;;;;3.75;2.50;;;6.80;95.60;;;;;;5060437;28;20388;-88
2021/03/17 05:20:22;;;;;;;4.25;2.40;;;6.80;95.60;;;;;;5074623;28;20123;-89
2021/03/17 05:22:49;;;;;;;4.55;2.80;;;6.80;95.60;;;;;;5073343;28;20530;-88
2021/03/17 05:25:18;;;;;;;3.28;2.47;;;6.80;95.60;;;;;;5057315;28;20024;-89
2021/03/17 05:27:46;;;;;;;3.58;2.67;;;6.80;95.60;;;;;;5072351;28;20025;-88
2021/03/17 05:30:13;;;;;;;4.30;2.75;;;6.80;95.60;;;;;;5049898;28;20112;-89
2021/03/17 05:32:41;;;;;;;3.25;2.13;;;6.80;95.60;;;;;;5042467;28;20822;-90
2021/03/17 05:35:09;;;;;;;2.58;2.00;;;6.80;95.70;;;;;;5073430;28;20070;-90
2021/03/17 05:37:35;;;;;;;3.00;2.30;;;6.80;95.70;;;;;;5073122;28;20032;-86
2021/03/17 05:40:04;;;;;;;3.03;2.30;;;6.80;95.70;;;;;;5026298;28;20078;-89
2021/03/17 05:42:30;;;;;;;4.07;2.00;;;6.80;95.70;;;;;;5076030;28;20036;-84
2021/03/17 05:44:55;;;;;;;3.00;2.20;;;6.80;95.70;;;;;;5085594;28;20057;-87
2021/03/17 05:47:23;;;;;;;2.88;2.08;;;6.80;95.80;;;;;;5050697;28;20020;-88
2021/03/17 05:49:49;;;;;;;2.85;1.85;;;6.80;95.80;;;;;;5077001;28;20016;-87
2021/03/17 05:52:18;;;;;;;2.42;1.70;;;6.80;95.80;;;;;;5077348;28;20047;-86
2021/03/17 05:54:45;;;;;;;2.75;1.80;;;6.80;95.80;;;;;;5083241;28;20016;-87
2021/03/17 05:57:13;;;;;;;2.63;1.67;;;6.80;95.80;;;;;;5059081;28;20020;-87
2021/03/17 05:59:40;;;;;;;3.50;1.67;;;6.80;95.80;;;;;;5076103;28;20020;-88
2021/03/17 06:02:08;;;;;;;2.33;1.77;;;6.80;95.80;;;;;;5041751;28;20045;-88
2021/03/17 06:04:38;;;;;;;2.42;1.63;;;6.80;95.80;;;;;;5067889;28;20032;-85
2021/03/17 06:07:09;;;;;;;4.00;2.00;;;6.80;95.80;;;;;;5075630;28;20057;-88
2021/03/17 06:09:37;;;;;;;2.50;1.70;;;6.80;95.80;;;;;;5081512;28;20028;-87
2021/03/17 06:12:07;;;;;;;3.88;2.63;;;6.80;95.80;;;;;;5072963;28;20043;-89
2021/03/17 06:14:35;;;;;;;3.35;1.95;;;6.80;95.80;;;;;;5047233;28;20016;-89
2021/03/17 06:17:08;;;;;;;2.40;1.80;;;6.80;95.80;;;;;;5073332;28;20025;-89
2021/03/17 06:19:36;;;;;;;4.13;1.92;;;6.80;95.80;;;;;;5065260;28;20499;-88
2021/03/17 06:22:02;;;;;;;2.50;1.80;;;6.80;95.80;;;;;;5072250;28;20027;-87
2021/03/17 06:24:29;;;;;;;3.13;1.98;;;6.80;95.80;;;;;;5044038;28;20025;-88
2021/03/17 06:26:55;;;;;;;3.50;2.20;;;6.80;95.80;;;;;;5069700;28;20074;-88
2021/03/17 06:29:21;;;;;;;3.75;2.13;;;6.80;95.80;;;;;;5086126;28;20074;-88
2021/03/17 06:31:48;;;;;;;2.85;1.80;;;6.80;95.80;;;;;;5071556;28;20376;-88
2021/03/17 06:34:14;;;;;;;3.53;2.17;;;6.80;95.80;;;;;;5073787;28;20065;-87
2021/03/17 06:36:55;;;;;;;3.88;2.20;;;6.80;95.80;;;;;;5074605;28;20024;-90
2021/03/17 06:39:21;;;;;;;2.78;1.63;;;6.80;95.80;;;;;;5074806;28;20637;-88
2021/03/17 06:41:54;;;;;;;3.40;1.90;;;6.80;95.80;;;;;;5068028;28;20032;-88
2021/03/17 06:44:28;;;;;;;3.38;2.25;;;6.80;95.80;;;;;;5093132;28;20136;-90
2021/03/17 06:47:29;;;;;;;3.85;2.33;;;6.80;95.80;;;;;;5094393;28;20020;-88
2021/03/17 06:49:55;;;;;;;4.45;2.15;;;6.80;95.80;;;;;;4988906;28;20076;-89
2021/03/17 06:52:38;;;;;;;3.83;2.45;;;6.80;95.80;;;;;;5044497;28;20059;-88
2021/03/17 06:55:04;;;;;;;4.50;2.47;;;6.80;95.80;;;;;;5080544;28;20019;-88
2021/03/17 06:57:29;;;;;;;3.35;2.15;;;6.80;95.80;;;;;;5092789;28;20520;-86
2021/03/17 07:00:20;;;;;;;2.95;1.67;;;6.80;95.90;;;;;;5054531;28;20098;-88
2021/03/17 07:02:56;;;;;;;3.28;2.00;;;6.80;95.90;;;;;;5060838;28;20031;-89
2021/03/17 07:05:43;;;;;;;2.63;2.00;;;6.80;95.90;;;;;;5060961;28;20082;-88
2021/03/17 07:08:13;;;;;;;2.55;1.75;;;6.80;95.90;;;;;;5072924;28;20103;-88
2021/03/17 07:10:44;;;;;;;4.82;1.90;;;6.80;95.90;;;;;;5097764;28;20042;-86
2021/03/17 07:13:13;;;;;;;2.65;1.73;;;6.80;96.00;;;;;;5078158;28;20047;-88
2021/03/17 07:15:41;;;;;;;2.88;1.70;;;6.80;95.90;;;;;;5096980;28;20028;-90
2021/03/17 07:18:16;;;;;;;3.03;1.65;;;6.80;95.90;;;;;;5065310;28;20008;-87
2021/03/17 07:20:52;;;;;;;2.75;1.52;;;6.80;95.90;;;;;;5079120;28;20111;-85
2021/03/17 07:23:25;;;;;;;2.83;1.40;;;6.80;96.00;;;;;;5084284;28;20475;-88
2021/03/17 07:26:09;;;;;;;2.25;1.20;;;6.80;96.00;;;;;;5078305;28;20101;-89
2021/03/17 07:28:52;;;;;;;1.70;1.25;;;6.90;96.10;;;;;;5085213;28;20036;-89
2021/03/17 07:31:27;;;;;;;2.88;1.60;;;6.90;96.10;;;;;;5078045;28;20112;-88
2021/03/17 07:33:53;;;;;;;1.98;1.30;;;6.90;96.20;;;;;;5078479;28;20031;-88
2021/03/17 07:36:47;;;;;;;3.97;1.50;;;6.90;96.20;;;;;;5078408;28;20061;-88
2021/03/17 07:39:17;;;;;;;2.00;1.42;;;7.00;96.20;;;;;;5086098;28;20023;-89
2021/03/17 07:41:44;;;;;;;5.10;1.80;;;7.00;96.20;;;;;;5085711;28;20012;-85
2021/03/17 07:44:12;;;;;;;3.88;1.50;;;7.00;96.30;;;;;;5091367;28;20019;-88
2021/03/17 07:46:40;;;;;;;4.15;1.60;;;7.10;96.30;;;;;;5078166;28;20032;-88
2021/03/17 07:49:07;;;;;;;4.20;1.88;;;7.10;96.40;;;;;;5094297;28;20031;-88
2021/03/17 07:51:40;;;;;;;3.53;1.30;;;7.20;96.40;;;;;;5060917;28;20111;-88
2021/03/17 07:54:08;;;;;;;1.77;1.00;;;7.20;96.20;;;;;;5092519;28;20039;-88
2021/03/17 07:56:34;;;;;;;2.83;1.10;;;7.20;96.10;;;;;;5070169;28;20516;-86
2021/03/17 07:59:00;;;;;;;5.03;1.02;;;7.20;96.00;;;;;;5088216;28;20024;-87
2021/03/17 08:01:26;;;;;;;2.90;0.80;;;7.20;96.00;;;;;;5073368;28;20160;-87
2021/03/17 08:03:52;;;;;;;3.22;0.98;;;7.20;96.00;;;;;;5055707;28;20025;-84
2021/03/17 08:06:20;;;;;;;2.53;1.20;;;7.20;96.00;;;;;;5059469;28;20028;-89
2021/03/17 08:08:46;;;;;;;4.95;1.02;;;7.20;96.10;;;;;;5061432;28;20054;-92
2021/03/17 08:11:18;;;;;;;3.13;1.00;;;7.20;96.00;;;;;;5068319;28;20021;-91
2021/03/17 08:13:47;;;;;;;2.63;1.30;;;7.20;96.00;;;;;;5074099;28;20016;-94
2021/03/17 08:16:17;;;;;;;4.22;1.13;;;7.20;96.00;;;;;;5063693;28;20027;-92
2021/03/17 08:18:44;;;;;;;3.08;1.00;;;7.30;96.00;;;;;;5092487;28;20025;-91
2021/03/17 08:21:10;;;;;;;3.15;1.30;;;7.30;96.00;;;;;;5067720;28;20017;-89
2021/03/17 08:23:43;;;;;;;1.98;1.10;;;7.30;95.90;;;;;;5071565;28;20062;-88
2021/03/17 08:26:33;;;;;;;4.22;1.17;;;7.30;95.80;;;;;;5073571;28;20063;-90
2021/03/17 08:28:59;;;;;;;2.33;1.15;;;7.30;95.80;;;;;;5071848;28;20025;-88
2021/03/17 08:31:36;;;;;;;3.38;0.93;;;7.30;95.70;;;;;;5069540;28;20005;-93
2021/03/17 08:34:23;;;;;;;5.03;1.33;;;7.40;95.80;;;;;;5064781;28;20023;-92
2021/03/17 08:36:59;;;;;;;2.53;1.30;;;7.30;95.70;;;;;;5076931;28;20491;-87
2021/03/17 08:39:34;;;;;;;3.53;0.80;;;7.30;95.60;;;;;;5068890;28;20032;-92
2021/03/17 08:42:13;;;;;;;4.22;1.20;;;7.40;95.70;;;;;;5059859;28;20111;-93
2021/03/17 08:44:39;;;;;;;3.63;1.02;;;7.40;95.60;;;;;;5068651;28;20015;-91
2021/03/17 08:47:23;;;;;;;3.67;0.98;;;7.40;95.60;;;;;;5086436;28;20501;-92
2021/03/17 08:49:52;;;;;;;1.90;0.75;;;7.40;95.60;;;;;;5075937;28;20349;-91
2021/03/17 08:52:22;;;;;;;3.92;1.45;;;7.50;95.60;;;;;;5073407;28;20545;-89
2021/03/17 08:54:52;;;;;;;3.05;0.90;;;7.50;95.60;;;;;;5071025;28;20414;-92
2021/03/17 08:57:19;;;;;;;3.75;1.20;;;7.60;95.50;;;;;;5073376;28;20078;-92
2021/03/17 08:59:49;;;;;;;3.60;0.95;;;7.60;95.30;;;;;;5074956;28;20476;-91
2021/03/17 09:02:24;;;;;;;3.13;0.90;;;7.60;95.30;;;;;;5075289;28;20020;-91
2021/03/17 09:05:04;;;;;;;3.35;1.00;;;7.60;95.20;;;;;;5071403;28;20032;-91
2021/03/17 09:07:33;;;;;;;3.15;1.10;;;7.60;95.20;;;;;;5077794;28;20081;-92
2021/03/17 09:10:08;;;;;;;3.47;1.20;;;7.70;95.20;;;;;;5095633;28;20123;-93
2021/03/17 09:12:34;;;;;;;3.63;1.02;;;7.70;94.80;;;;;;5078974;28;20031;-90
2021/03/17 09:15:21;;;;;;;3.22;0.85;;;7.70;94.80;;;;;;5097666;28;20020;-89
2021/03/17 09:17:55;;;;;;;2.70;0.90;;;7.60;94.80;;;;;;5108148;28;20697;-85
2021/03/17 09:20:42;;;;;;;2.13;0.75;;;7.60;94.90;;;;;;5079987;28;20035;-91
2021/03/17 09:23:11;;;;;;;1.92;1.10;;;7.60;95.00;;;;;;5075766;28;20020;-93
2021/03/17 09:25:47;;;;;;;4.03;1.30;;;7.60;95.00;;;;;;5092096;28;20024;-92
2021/03/17 09:28:27;;;;;;;3.97;1.10;;;7.60;95.10;;;;;;5084080;28;20012;-93
2021/03/17 09:30:57;;;;;;;4.53;1.00;;;7.70;95.10;;;;;;5074564;28;20056;-94
2021/03/17 09:33:43;;;;;;;2.03;0.90;;;7.70;95.20;;;;;;5071813;28;20031;-93
2021/03/17 09:36:10;;;;;;;3.53;0.88;;;7.70;95.30;;;;;;5056263;28;20016;-89
2021/03/17 09:38:39;;;;;;;0.90;0.73;;;7.70;95.40;;;;;;5075680;28;20024;-92
2021/03/17 09:41:20;;;;;;;2.38;0.70;;;7.80;95.40;;;;;;5071465;28;20023;-94
2021/03/17 09:43:55;;;;;;;3.80;0.98;;;7.80;95.50;;;;;;5086959;28;20019;-94
2021/03/17 09:46:25;;;;;;;3.13;0.80;;;7.90;95.50;;;;;;5073004;28;20017;-93
2021/03/17 09:48:54;;;;;;;3.75;1.15;;;7.90;95.60;;;;;;5076307;28;20036;-93
2021/03/17 09:51:26;;;;;;;2.65;0.73;;;8.00;95.60;;;;;;5074290;28;20012;-94
2021/03/17 09:53:53;;;;;;;1.92;0.70;;;8.00;95.60;;;;;;5084585;28;20021;-93
2021/03/17 09:56:43;;;;;;;2.03;0.90;;;8.10;95.70;;;;;;5073765;28;20112;-92
2021/03/17 09:59:28;;;;;;;6.43;1.42;;;8.20;95.80;;;;;;5067649;28;20111;-94
2021/03/17 10:02:06;;;;;;;3.97;1.10;;;8.20;95.70;;;;;;5074881;28;20037;-95
2021/03/17 10:04:42;;;;;;;8.98;1.38;;;8.30;95.70;;;;;;5074649;28;20085;-93
2021/03/17 10:07:13;;;;;;;2.92;1.10;;;8.30;95.60;;;;;;5070327;28;20027;-93
2021/03/17 10:09:40;;;;;;;5.38;1.23;;;8.40;95.50;;;;;;5074918;28;20460;-94
2021/03/17 10:12:10;;;;;;;6.10;1.20;;;8.40;95.20;;;;;;5057224;28;20027;-93
2021/03/17 10:14:38;;;;;;;2.70;0.95;;;8.50;94.90;;;;;;5065591;28;20039;-93
2021/03/17 10:17:06;;;;;;;3.10;1.05;;;8.50;94.90;;;;;;5074598;28;20028;-92
2021/03/17 10:19:33;;;;;;;4.20;1.30;;;8.50;94.90;;;;;;5062735;28;20052;-92
2021/03/17 10:22:00;;;;;;;5.28;1.20;;;8.50;94.50;;;;;;5081007;28;20024;-87
2021/03/17 10:24:46;;;;;;;3.42;1.00;;;8.60;94.40;;;;;;5075647;28;20024;-93
2021/03/17 10:27:20;;;;;;;5.82;1.10;;;8.60;94.30;;;;;;5074853;28;20052;-92
2021/03/17 10:29:48;;;;;;;3.55;1.40;;;8.60;94.20;;;;;;5062776;28;20028;-89
2021/03/17 10:32:20;;;;;;;4.68;0.90;;;8.60;94.10;;;;;;5061655;28;20384;-93
2021/03/17 10:34:46;;;;;;;3.25;0.77;;;8.60;94.00;;;;;;5077266;28;20024;-94
2021/03/17 10:37:13;;;;;;;3.35;1.15;;;8.60;94.00;;;;;;5071734;28;20042;-88
2021/03/17 10:39:40;;;;;;;4.75;0.98;;;8.70;94.10;;;;;;5075357;28;20020;-89
2021/03/17 10:42:21;;;;;;;2.92;1.17;;;8.70;94.00;;;;;;5078709;28;20020;-87
2021/03/17 10:45:02;;;;;;;3.55;0.90;;;8.80;94.10;;;;;;5091474;28;20007;-91
2021/03/17 10:47:28;;;;;;;3.03;1.25;;;8.80;94.00;;;;;;5089142;28;20047;-88
2021/03/17 10:49:54;;;;;;;8.07;1.95;;;8.80;93.60;;;;;;5118016;28;20066;-90
2021/03/17 10:52:20;;;;;;;3.25;0.93;;;8.90;93.60;;;;;;5108478;28;20023;-91
2021/03/17 10:54:46;;;;;;;3.38;1.23;;;9.00;93.70;;;;;;5083973;28;20023;-90
2021/03/17 10:57:21;;;;;;;2.80;0.82;;;9.00;93.50;;;;;;5076718;28;20019;-89
2021/03/17 10:59:46;;;;;;;5.65;1.30;;;9.10;93.50;;;;;;5095531;28;20020;-91
2021/03/17 11:02:16;;;;;;;4.20;1.45;;;9.10;93.30;;;;;;5090792;28;20051;-91
2021/03/17 11:05:17;;;;;;;4.40;0.98;;;9.20;93.10;;;;;;5081724;28;20033;-87
2021/03/17 11:08:00;;;;;;;3.83;0.98;;;9.20;92.70;;;;;;5076645;28;20032;-94
2021/03/17 11:10:35;;;;;;;4.50;1.10;;;9.20;92.40;;;;;;5063892;28;20092;-89
2021/03/17 11:13:09;;;;;;;5.30;1.10;;;9.30;92.50;;;;;;5107849;28;20024;-87
2021/03/17 11:15:59;;;;;;;4.38;0.90;;;9.30;92.20;;;;;;5095888;28;20076;-93
2021/03/17 11:18:35;;;;;;;5.13;1.30;;;9.30;92.10;;;;;;5082102;28;20024;-90
2021/03/17 11:21:15;;;;;;;4.10;1.00;;;9.40;92.10;;;;;;5077339;28;20036;-91
2021/03/17 11:23:42;;;;;;;6.72;1.10;;;9.40;91.80;;;;;;5078287;28;20024;-91
2021/03/17 11:26:22;;;;;;;3.97;1.30;;;9.40;91.70;;;;;;5070526;28;20460;-91
2021/03/17 11:28:51;;;;;;;4.53;1.47;;;9.40;91.70;;;;;;5088523;28;20028;-92
2021/03/17 11:31:32;;;;;;;3.60;1.27;;;9.40;91.30;;;;;;5084898;28;20035;-91
2021/03/17 11:33:59;;;;;;;3.35;0.95;;;9.40;91.60;;;;;;5060598;28;20040;-91
2021/03/17 11:36:26;;;;;;;4.93;1.70;;;9.40;91.30;;;;;;5096478;28;20103;-91
2021/03/17 11:38:52;;;;;;;7.20;1.20;;;9.40;90.90;;;;;;5064327;28;20028;-92
2021/03/17 11:41:19;;;;;;;4.32;1.23;;;9.50;90.90;;;;;;5066444;28;20623;-92
2021/03/17 11:43:45;;;;;;;4.68;1.40;;;9.50;91.20;;;;;;5042798;28;20047;-92
2021/03/17 11:46:11;;;;;;;4.13;1.40;;;9.60;91.30;;;;;;5061297;28;20036;-90
2021/03/17 11:48:37;;;;;;;6.63;1.35;;;9.70;91.20;;;;;;5058786;28;20051;-90
2021/03/17 11:51:06;;;;;;;3.63;1.20;;;9.70;90.70;;;;;;5075084;28;20081;-91
2021/03/17 11:53:33;;;;;;;4.20;1.10;;;9.80;90.80;;;;;;5048053;28;20038;-93
2021/03/17 11:55:59;;;;;;;5.28;1.50;;;9.90;90.80;;;;;;5077296;28;20318;-91
2021/03/17 11:58:24;;;;;;;4.70;1.13;;;9.90;90.00;;;;;;5066949;28;20489;-90
2021/03/17 12:00:51;;;;;;;2.97;1.02;;;9.80;90.30;;;;;;5058385;28;20067;-93
2021/03/17 12:03:16;;;;;;;4.35;1.75;;;9.80;90.50;;;;;;5078219;28;20040;-91
2021/03/17 12:05:43;;;;;;;5.85;1.17;;;9.80;90.80;;;;;;5057792;28;20031;-92
2021/03/17 12:08:09;;;;;;;5.05;1.30;;;9.80;90.90;;;;;;5077854;28;20479;-93
2021/03/17 12:10:35;;;;;;;3.28;1.08;;;9.90;90.80;;;;;;5087637;28;20031;-92
2021/03/17 12:13:02;;;;;;;3.95;0.98;;;9.90;90.80;;;;;;5060249;28;20028;-92
2021/03/17 12:15:28;;;;;;;2.78;0.77;;;9.90;90.60;;;;;;5079719;28;20460;-93
2021/03/17 12:17:54;;;;;;;2.35;1.05;;;9.80;90.70;;;;;;5094934;28;20020;-91
2021/03/17 12:20:22;;;;;;;4.35;1.05;;;9.80;90.90;;;;;;5090544;28;20068;-92
2021/03/17 12:22:48;;;;;;;3.83;0.80;;;9.90;90.80;;;;;;5084139;28;20016;-92
2021/03/17 12:25:14;;;;;;;3.05;0.82;;;9.90;90.80;;;;;;5088491;28;20022;-89
2021/03/17 12:27:41;;;;;;;3.70;1.08;;;9.90;90.80;;;;;;5067638;28;20081;-90
2021/03/17 12:30:09;;;;;;;3.88;0.88;;;9.90;90.70;;;;;;5094168;28;20028;-91
2021/03/17 12:32:35;;;;;;;2.30;0.65;;;9.90;90.70;;;;;;5111045;28;20026;-85
2021/03/17 12:35:00;;;;;;;2.25;0.50;;;9.90;90.50;;;;;;5076133;28;20024;-92
2021/03/17 12:37:29;;;;;;;3.28;0.70;;;9.90;90.70;;;;;;5086648;28;20019;-91
2021/03/17 12:39:54;;;;;;;3.47;1.40;;;9.90;90.80;;;;;;5087145;28;20032;-91
2021/03/17 12:42:20;;;;;;;1.38;0.50;;;9.90;90.90;;;;;;5077786;28;20024;-89
2021/03/17 12:44:45;;;;;;;2.47;0.82;;;9.90;91.00;;;;;;5045819;28;20033;-93
2021/03/17 12:47:11;;;;;;;2.42;0.60;;;9.90;90.90;;;;;;5060874;28;20380;-94
2021/03/17 12:49:37;;;;;;;4.00;0.95;;;10.00;90.90;;;;;;5046405;28;20036;-92
2021/03/17 12:52:04;;;;;;;4.63;0.90;;;10.00;90.90;;;;;;5086750;28;20466;-95
2021/03/17 12:54:30;;;;;;;2.85;0.77;;;10.00;91.00;;;;;;5089413;28;20047;-91
2021/03/17 12:56:55;;;;;;;2.97;0.80;;;10.00;91.00;;;;;;5063947;28;20028;-93
2021/03/17 12:59:21;;;;;;;5.55;1.13;;;10.00;90.80;;;;;;5110495;28;20051;-89
2021/03/17 13:01:47;;;;;;;1.88;0.65;;;10.00;90.70;;;;;;5079339;28;20045;-91
2021/03/17 13:04:13;;;;;;;1.85;0.77;;;10.00;90.60;;;;;;5057264;28;20025;-92
2021/03/17 13:06:39;;;;;;;1.13;0.40;;;10.00;90.60;;;;;;5058719;28;20040;-90
2021/03/17 13:09:05;;;;;;;1.73;0.60;;;10.00;90.70;;;;;;5069782;28;20490;-91
2021/03/17 13:11:34;;;;;;;2.45;0.60;;;10.00;90.90;;;;;;5089666;28;20047;-90
2021/03/17 13:14:00;;;;;;;1.55;0.60;;;10.00;91.00;;;;;;5061923;28;20016;-88